createdAt,value
2022-11-22T00:01:17.258Z,97930
2022-11-22T00:06:56.265Z,97932.3
2022-11-22T00:12:32.177Z,97929.8
2022-11-22T00:18:07.183Z,97929.8
2022-11-22T00:23:47.301Z,97944.8
2022-11-22T00:29:22.753Z,97952.9
2022-11-22T00:35:03.776Z,97908.8
2022-11-22T00:40:40.112Z,97885.7
2022-11-22T00:46:36.785Z,97875
2022-11-22T00:52:09.561Z,97872.2
2022-11-22T00:57:55.494Z,97871.6
2022-11-22T01:03:31.740Z,97872.9
2022-11-22T01:09:18.570Z,97863.7
2022-11-22T01:15:14.911Z,97853.7
2022-11-22T01:21:04.592Z,97837.2
2022-11-22T01:26:46.168Z,97831.2
2022-11-22T01:32:21.267Z,97824.8
2022-11-22T01:37:57.210Z,97840
2022-11-22T01:43:41.188Z,97865.9
2022-11-22T01:49:38.910Z,97867.2
2022-11-22T01:55:11.683Z,97883.5
2022-11-22T02:00:47.789Z,97911
2022-11-22T02:07:04.432Z,97915.4
2022-11-22T02:12:42.970Z,97942.8
2022-11-22T02:19:08.868Z,97955.9
2022-11-22T02:24:44.202Z,97958.1
2022-11-22T02:30:29.149Z,97979.6
2022-11-22T02:36:12.575Z,97994.4
2022-11-22T02:41:48.485Z,97994.4
2022-11-22T02:47:45.335Z,98005.7
2022-11-22T02:53:19.343Z,98018.3
2022-11-22T02:58:56.432Z,97990.8
2022-11-22T03:04:52.303Z,97986.9
2022-11-22T03:10:35.241Z,97978.4
2022-11-22T03:16:10.632Z,97975.5
2022-11-22T03:21:48.899Z,98004.4
2022-11-22T03:27:23.894Z,98020.4
2022-11-22T03:33:03.712Z,98015.4
2022-11-22T03:38:38.495Z,98017.3
2022-11-22T03:44:17.077Z,97999.7
2022-11-22T03:50:06.629Z,98004.5
2022-11-22T03:57:19.978Z,98001.9
2022-11-22T04:02:59.108Z,97997.2
2022-11-22T04:08:35.541Z,97996.6
2022-11-22T04:14:12.392Z,97991.6
2022-11-22T04:19:51.519Z,98016.3
2022-11-22T04:25:26.864Z,98055.8
2022-11-22T04:31:15.412Z,98054.7
2022-11-22T04:36:57.254Z,98039.7
2022-11-22T04:42:32.461Z,98042.4
2022-11-22T04:48:29.365Z,98048.9
2022-11-22T04:54:01.930Z,98068.9
2022-11-22T04:59:37.365Z,98061.2
2022-11-22T05:05:12.490Z,98058.8
2022-11-22T05:10:47.786Z,98070.5
2022-11-22T05:16:23.221Z,98074
2022-11-22T05:22:11.692Z,98082.9
2022-11-22T05:27:47.079Z,98065.3
2022-11-22T05:33:22.235Z,98078.4
2022-11-22T05:38:57.908Z,98078.4
2022-11-22T05:44:32.873Z,98053.5
2022-11-22T05:50:08.434Z,98035.3
2022-11-22T05:55:43.258Z,98030.1
2022-11-22T06:01:18.409Z,98010.8
2022-11-22T06:06:54.025Z,97992.4
2022-11-22T06:12:34.356Z,97997.4
2022-11-22T06:18:11.020Z,98010
2022-11-22T06:23:52.916Z,98007.1
2022-11-22T06:29:49.110Z,98002.9
2022-11-22T06:35:25.371Z,97999.6
2022-11-22T06:41:01.330Z,98016.1
2022-11-22T06:47:01.696Z,98006.3
2022-11-22T06:52:35.164Z,98013.7
2022-11-22T06:58:10.208Z,98004.7
2022-11-22T07:03:48.685Z,98017.5
2022-11-22T07:09:24.742Z,98047.7
2022-11-22T07:15:00.817Z,98046.4
2022-11-22T07:20:35.804Z,98061.9
2022-11-22T07:26:10.810Z,98069.6
2022-11-22T07:31:47.356Z,98051.4
2022-11-22T07:37:22.625Z,98054.2
2022-11-22T07:42:59.581Z,98070.6
2022-11-22T07:48:34.991Z,98080.9
2022-11-22T07:54:11.070Z,98089
2022-11-22T07:59:46.993Z,98095.4
2022-11-22T08:05:22.965Z,98062.1
2022-11-22T08:10:59.204Z,98056.5
2022-11-22T08:16:34.619Z,98031
2022-11-22T08:22:10.557Z,98025.5
2022-11-22T08:27:46.042Z,98017.1
2022-11-22T08:33:21.532Z,98014.2
2022-11-22T08:38:57.599Z,98019.5
2022-11-22T08:44:33.175Z,98034.3
2022-11-22T08:50:09.570Z,98042.1
2022-11-22T08:55:47.144Z,98039.2
2022-11-22T09:01:23.600Z,98046
2022-11-22T09:14:23.422Z,98040.1
2022-11-22T09:19:58.776Z,98030.1
2022-11-22T09:25:34.229Z,98045.2
2022-11-22T09:31:10.629Z,98061.5
2022-11-22T09:36:47.058Z,98074.8
2022-11-22T09:42:23.356Z,98092.5
2022-11-22T09:48:25.247Z,98087.9
2022-11-22T09:53:58.249Z,98092.1
2022-11-22T09:59:34.126Z,98074.7
2022-11-22T10:05:09.796Z,98072.3
2022-11-22T10:10:45.456Z,98051.4
2022-11-22T10:16:21.759Z,98040.9
2022-11-22T10:21:57.741Z,98031
2022-11-22T10:27:32.741Z,98010.6
2022-11-22T10:33:08.180Z,98012.7
2022-11-22T10:38:44.625Z,98024.7
2022-11-22T10:44:19.520Z,98007
2022-11-22T10:49:55.523Z,97994.5
2022-11-22T10:55:31.813Z,97984.9
2022-11-22T11:01:07.968Z,97960.5
2022-11-22T11:07:13.575Z,97961
2022-11-22T11:12:50.637Z,97945.3
2022-11-22T11:18:26.194Z,97939.2
2022-11-22T11:24:10.707Z,97937
2022-11-22T11:29:47.276Z,97950.7
2022-11-22T11:35:22.579Z,97932.3
2022-11-22T11:40:58.326Z,97919.7
2022-11-22T11:46:34.296Z,97913.5
2022-11-22T11:52:09.326Z,97915.2
2022-11-22T11:57:44.721Z,97908.5
2022-11-22T12:03:20.786Z,97899.2
2022-11-22T12:08:56.155Z,97887.9
2022-11-22T12:15:12.305Z,97859.9
2022-11-22T12:20:50.901Z,97874.6
2022-11-22T12:26:26.206Z,97872.7
2022-11-22T12:32:09.236Z,97860.6
2022-11-22T12:37:45.718Z,97833.2
2022-11-22T12:43:21.505Z,97825.2
2022-11-22T12:49:19.200Z,97816.8
2022-11-22T12:54:53.022Z,97831.8
2022-11-22T13:00:27.955Z,97820.5
2022-11-22T13:06:04.410Z,97798.8
2022-11-22T13:11:40.659Z,97795.7
2022-11-22T13:17:15.705Z,97790.8
2022-11-22T13:22:51.431Z,97774.3
2022-11-22T13:28:27.453Z,97768.3
2022-11-22T13:34:02.208Z,97755.3
2022-11-22T13:39:38.430Z,97746.1
2022-11-22T13:45:14.873Z,97736.3
2022-11-22T13:50:50.783Z,97732.8
2022-11-22T13:56:26.564Z,97729
2022-11-22T14:02:03.723Z,97714.4
2022-11-22T14:07:41.209Z,97702.5
2022-11-22T14:13:17.668Z,97701.5
2022-11-22T14:18:53.332Z,97696
2022-11-22T14:24:29.748Z,97684.4
2022-11-22T14:30:07.370Z,97688.4
2022-11-22T14:35:43.915Z,97679.1
2022-11-22T14:41:18.899Z,97678
2022-11-22T14:47:16.198Z,97666.2
2022-11-22T14:52:50.161Z,97660.7
2022-11-22T14:58:25.776Z,97657.1
2022-11-22T15:09:52.386Z,97646.9
2022-11-22T16:02:45.811Z,97549.1
2022-11-22T16:08:22.078Z,97544.3
2022-11-22T16:14:07.939Z,97564.9
2022-11-22T16:19:45.430Z,97555.9
2022-11-22T16:25:20.256Z,97557.8
2022-11-22T16:30:55.565Z,97564
2022-11-22T16:36:31.707Z,97554
2022-11-22T16:42:07.902Z,97562.3
2022-11-22T16:48:33.802Z,97564.2
2022-11-22T16:54:09.490Z,97561.6
2022-11-22T16:59:45.396Z,97562.4
2022-11-22T17:05:20.985Z,97559.8
2022-11-22T17:10:57.267Z,97552.6
2022-11-22T17:16:33.787Z,97544
2022-11-22T17:22:09.550Z,97542.4
2022-11-22T17:27:54.418Z,97556.3
2022-11-22T17:33:29.298Z,97558.3
2022-11-22T17:39:04.799Z,97565.1
2022-11-22T17:44:40.990Z,97558.8
2022-11-22T17:50:16.360Z,97551.1
2022-11-22T17:56:19.408Z,97539
2022-11-22T18:01:55.652Z,97526.5
2022-11-22T18:07:34.085Z,97528.1
2022-11-22T18:13:24.374Z,97529.4
2022-11-22T18:19:01.743Z,97519.6
2022-11-22T18:24:38.444Z,97525.7
2022-11-22T18:30:14.246Z,97532.5
2022-11-22T18:35:57.312Z,97530.8
2022-11-22T18:41:32.953Z,97536.9
2022-11-22T18:47:08.519Z,97539.2
2022-11-22T18:52:44.044Z,97539.8
2022-11-22T18:58:21.699Z,97547.6
2022-11-22T19:03:57.798Z,97543.9
2022-11-22T19:09:33.832Z,97543.5
2022-11-22T19:15:11.171Z,97542.6
2022-11-22T19:20:56.898Z,97537
2022-11-22T19:26:32.838Z,97517.7
2022-11-22T19:32:08.326Z,97516.5
2022-11-22T19:37:48.034Z,97524.5
2022-11-22T19:43:25.069Z,97506.6
2022-11-22T19:49:04.157Z,97502.3
2022-11-22T19:54:39.967Z,97515.8
2022-11-22T20:00:16.843Z,97523.7
2022-11-22T20:05:52.010Z,97510.4
2022-11-22T20:11:27.893Z,97494.2
2022-11-22T20:17:07.426Z,97498.2
2022-11-22T20:22:44.110Z,97503.7
2022-11-22T20:28:19.155Z,97511.3
2022-11-22T20:33:56.419Z,97521.7
2022-11-22T20:39:31.875Z,97516.6
2022-11-22T20:45:11.960Z,97514.3
2022-11-22T20:50:52.695Z,97509.8
2022-11-22T20:56:28.176Z,97512.6
2022-11-22T21:02:11.260Z,97509.3
2022-11-22T21:07:49.195Z,97514.9
2022-11-22T21:13:25.477Z,97528.1
2022-11-22T21:19:01.440Z,97537.9
2022-11-22T21:24:38.965Z,97543.1
2022-11-22T21:30:14.248Z,97534.8
2022-11-22T21:35:50.014Z,97539.4
2022-11-22T21:41:42.576Z,97554.3
2022-11-22T21:47:17.910Z,97570.9
2022-11-22T21:52:53.325Z,97558.2
2022-11-22T21:58:30.066Z,97561.9
2022-11-22T22:04:05.351Z,97569.6
2022-11-22T22:09:41.621Z,97569
2022-11-22T22:15:18.019Z,97573.2
2022-11-22T22:20:53.534Z,97579.6
2022-11-22T22:26:28.912Z,97578.9
2022-11-22T22:32:11.190Z,97572.9
2022-11-22T22:37:46.223Z,97560.6
2022-11-22T22:43:21.470Z,97548.9
2022-11-22T22:48:58.514Z,97551.4
2022-11-22T22:54:33.807Z,97557.7
2022-11-22T23:00:09.361Z,97549.1
2022-11-22T23:05:45.817Z,97535.6
2022-11-22T23:11:21.978Z,97532.5
2022-11-22T23:16:59.469Z,97544.1
2022-11-22T23:22:36.052Z,97540
2022-11-22T23:28:12.744Z,97542.4
2022-11-22T23:33:48.939Z,97522.3
2022-11-22T23:39:25.360Z,97506.5
2022-11-22T23:44:59.971Z,97489.9
2022-11-22T23:50:38.097Z,97494.4
2022-11-22T23:56:22.145Z,97465.9
